sensor_id;sensor_type;location;lat;lon;timestamp;P1;durP1;ratioP1;P2;durP2;ratioP2
31306;SDS011;17935;51.120;13.132;2023-04-24T00:00:10;13.43;;;7.88;;
31306;SDS011;17935;51.120;13.132;2023-04-24T00:02:39;7.88;;;7.00;;
31306;SDS011;17935;51.120;13.132;2023-04-24T00:05:06;10.75;;;7.32;;
31306;SDS011;17935;51.120;13.132;2023-04-24T00:07:32;8.60;;;6.05;;
31306;SDS011;17935;51.120;13.132;2023-04-24T00:09:58;7.63;;;6.18;;
31306;SDS011;17935;51.120;13.132;2023-04-24T00:12:25;6.63;;;5.07;;
31306;SDS011;17935;51.120;13.132;2023-04-24T00:14:51;10.18;;;5.85;;
31306;SDS011;17935;51.120;13.132;2023-04-24T00:17:17;9.55;;;5.45;;
31306;SDS011;17935;51.120;13.132;2023-04-24T00:19:45;7.25;;;5.13;;
31306;SDS011;17935;51.120;13.132;2023-04-24T00:22:11;9.10;;;5.22;;
31306;SDS011;17935;51.120;13.132;2023-04-24T00:24:38;5.65;;;5.15;;
31306;SDS011;17935;51.120;13.132;2023-04-24T00:27:04;12.50;;;5.88;;
31306;SDS011;17935;51.120;13.132;2023-04-24T00:29:30;7.32;;;4.75;;
31306;SDS011;17935;51.120;13.132;2023-04-24T00:31:56;5.10;;;4.65;;
31306;SDS011;17935;51.120;13.132;2023-04-24T00:34:22;4.78;;;4.25;;
31306;SDS011;17935;51.120;13.132;2023-04-24T00:36:48;4.97;;;4.38;;
31306;SDS011;17935;51.120;13.132;2023-04-24T00:39:17;4.38;;;3.42;;
31306;SDS011;17935;51.120;13.132;2023-04-24T00:41:43;2.78;;;2.40;;
31306;SDS011;17935;51.120;13.132;2023-04-24T00:44:08;2.33;;;2.13;;
31306;SDS011;17935;51.120;13.132;2023-04-24T00:46:34;2.40;;;2.20;;
31306;SDS011;17935;51.120;13.132;2023-04-24T00:49:01;4.50;;;2.25;;
31306;SDS011;17935;51.120;13.132;2023-04-24T00:51:28;2.92;;;2.63;;
31306;SDS011;17935;51.120;13.132;2023-04-24T00:53:55;2.75;;;2.50;;
31306;SDS011;17935;51.120;13.132;2023-04-24T00:56:21;4.13;;;2.60;;
31306;SDS011;17935;51.120;13.132;2023-04-24T00:58:48;3.00;;;2.00;;
31306;SDS011;17935;51.120;13.132;2023-04-24T01:01:14;2.97;;;1.75;;
31306;SDS011;17935;51.120;13.132;2023-04-24T01:03:40;1.75;;;1.55;;
31306;SDS011;17935;51.120;13.132;2023-04-24T01:06:06;1.60;;;1.50;;
31306;SDS011;17935;51.120;13.132;2023-04-24T01:08:32;1.63;;;1.48;;
31306;SDS011;17935;51.120;13.132;2023-04-24T01:10:58;1.30;;;1.20;;
31306;SDS011;17935;51.120;13.132;2023-04-24T01:13:24;2.95;;;1.38;;
31306;SDS011;17935;51.120;13.132;2023-04-24T01:15:50;3.00;;;1.02;;
31306;SDS011;17935;51.120;13.132;2023-04-24T01:18:16;2.30;;;1.50;;
31306;SDS011;17935;51.120;13.132;2023-04-24T01:20:42;5.40;;;1.42;;
31306;SDS011;17935;51.120;13.132;2023-04-24T01:23:09;3.78;;;1.50;;
31306;SDS011;17935;51.120;13.132;2023-04-24T01:25:36;2.58;;;1.48;;
31306;SDS011;17935;51.120;13.132;2023-04-24T01:28:03;1.20;;;1.10;;
31306;SDS011;17935;51.120;13.132;2023-04-24T01:30:29;2.00;;;1.20;;
31306;SDS011;17935;51.120;13.132;2023-04-24T01:32:55;1.00;;;1.00;;
31306;SDS011;17935;51.120;13.132;2023-04-24T01:35:21;1.85;;;1.30;;
31306;SDS011;17935;51.120;13.132;2023-04-24T01:37:48;1.63;;;1.23;;
31306;SDS011;17935;51.120;13.132;2023-04-24T01:40:13;2.05;;;1.30;;
31306;SDS011;17935;51.120;13.132;2023-04-24T01:42:40;0.80;;;0.80;;
31306;SDS011;17935;51.120;13.132;2023-04-24T01:45:07;1.63;;;1.30;;
31306;SDS011;17935;51.120;13.132;2023-04-24T01:47:35;3.20;;;1.58;;
31306;SDS011;17935;51.120;13.132;2023-04-24T01:50:02;1.60;;;1.20;;
31306;SDS011;17935;51.120;13.132;2023-04-24T01:52:28;1.17;;;1.08;;
31306;SDS011;17935;51.120;13.132;2023-04-24T01:54:56;1.42;;;1.33;;
31306;SDS011;17935;51.120;13.132;2023-04-24T01:57:22;3.15;;;1.40;;
31306;SDS011;17935;51.120;13.132;2023-04-24T01:59:48;3.45;;;1.35;;
31306;SDS011;17935;51.120;13.132;2023-04-24T02:02:14;1.48;;;1.20;;
31306;SDS011;17935;51.120;13.132;2023-04-24T02:04:40;2.20;;;1.30;;
31306;SDS011;17935;51.120;13.132;2023-04-24T02:07:06;3.00;;;1.25;;
31306;SDS011;17935;51.120;13.132;2023-04-24T02:09:31;2.22;;;1.33;;
31306;SDS011;17935;51.120;13.132;2023-04-24T02:11:57;5.65;;;1.20;;
31306;SDS011;17935;51.120;13.132;2023-04-24T02:14:23;2.10;;;1.50;;
31306;SDS011;17935;51.120;13.132;2023-04-24T02:16:49;1.30;;;1.20;;
31306;SDS011;17935;51.120;13.132;2023-04-24T02:19:15;2.55;;;1.38;;
31306;SDS011;17935;51.120;13.132;2023-04-24T02:21:41;1.42;;;0.98;;
31306;SDS011;17935;51.120;13.132;2023-04-24T02:24:07;1.35;;;1.23;;
31306;SDS011;17935;51.120;13.132;2023-04-24T02:26:33;1.75;;;1.58;;
31306;SDS011;17935;51.120;13.132;2023-04-24T02:28:59;1.95;;;1.50;;
31306;SDS011;17935;51.120;13.132;2023-04-24T02:31:25;2.72;;;1.50;;
31306;SDS011;17935;51.120;13.132;2023-04-24T02:33:51;4.75;;;1.50;;
31306;SDS011;17935;51.120;13.132;2023-04-24T02:36:17;1.95;;;1.52;;
31306;SDS011;17935;51.120;13.132;2023-04-24T02:38:43;3.30;;;1.65;;
31306;SDS011;17935;51.120;13.132;2023-04-24T02:41:09;1.73;;;1.30;;
31306;SDS011;17935;51.120;13.132;2023-04-24T02:43:34;4.25;;;1.50;;
31306;SDS011;17935;51.120;13.132;2023-04-24T02:46:01;2.13;;;1.20;;
31306;SDS011;17935;51.120;13.132;2023-04-24T02:48:27;2.75;;;1.55;;
31306;SDS011;17935;51.120;13.132;2023-04-24T02:50:53;5.85;;;1.90;;
31306;SDS011;17935;51.120;13.132;2023-04-24T02:53:19;1.60;;;1.45;;
31306;SDS011;17935;51.120;13.132;2023-04-24T02:55:45;2.72;;;1.65;;
31306;SDS011;17935;51.120;13.132;2023-04-24T02:58:11;5.78;;;1.65;;
31306;SDS011;17935;51.120;13.132;2023-04-24T03:00:38;6.50;;;1.73;;
31306;SDS011;17935;51.120;13.132;2023-04-24T03:03:04;5.28;;;1.70;;
31306;SDS011;17935;51.120;13.132;2023-04-24T03:05:30;6.57;;;1.98;;
31306;SDS011;17935;51.120;13.132;2023-04-24T03:07:56;3.00;;;1.85;;
31306;SDS011;17935;51.120;13.132;2023-04-24T03:10:22;1.90;;;1.70;;
31306;SDS011;17935;51.120;13.132;2023-04-24T03:12:48;1.60;;;1.35;;
31306;SDS011;17935;51.120;13.132;2023-04-24T03:15:14;4.32;;;1.55;;
31306;SDS011;17935;51.120;13.132;2023-04-24T03:17:40;1.90;;;1.60;;
31306;SDS011;17935;51.120;13.132;2023-04-24T03:20:07;2.00;;;1.83;;
31306;SDS011;17935;51.120;13.132;2023-04-24T03:22:33;4.10;;;1.55;;
31306;SDS011;17935;51.120;13.132;2023-04-24T03:24:59;3.17;;;1.80;;
31306;SDS011;17935;51.120;13.132;2023-04-24T03:27:25;2.72;;;1.58;;
31306;SDS011;17935;51.120;13.132;2023-04-24T03:29:51;1.90;;;1.70;;
31306;SDS011;17935;51.120;13.132;2023-04-24T03:32:21;2.25;;;1.77;;
31306;SDS011;17935;51.120;13.132;2023-04-24T03:34:47;4.38;;;1.67;;
31306;SDS011;17935;51.120;13.132;2023-04-24T03:37:13;1.95;;;1.75;;
31306;SDS011;17935;51.120;13.132;2023-04-24T03:39:39;4.32;;;1.88;;
31306;SDS011;17935;51.120;13.132;2023-04-24T03:42:05;3.97;;;1.98;;
31306;SDS011;17935;51.120;13.132;2023-04-24T03:44:33;4.78;;;2.50;;
31306;SDS011;17935;51.120;13.132;2023-04-24T03:46:59;2.15;;;1.88;;
31306;SDS011;17935;51.120;13.132;2023-04-24T03:49:25;4.00;;;1.80;;
31306;SDS011;17935;51.120;13.132;2023-04-24T03:51:51;1.80;;;1.70;;
31306;SDS011;17935;51.120;13.132;2023-04-24T03:54:17;2.85;;;1.90;;
31306;SDS011;17935;51.120;13.132;2023-04-24T03:56:43;2.33;;;1.65;;
31306;SDS011;17935;51.120;13.132;2023-04-24T03:59:09;3.33;;;1.58;;
31306;SDS011;17935;51.120;13.132;2023-04-24T04:01:35;4.35;;;1.80;;
31306;SDS011;17935;51.120;13.132;2023-04-24T04:04:02;7.47;;;2.25;;
31306;SDS011;17935;51.120;13.132;2023-04-24T04:06:28;2.17;;;1.67;;
31306;SDS011;17935;51.120;13.132;2023-04-24T04:08:55;2.28;;;1.45;;
31306;SDS011;17935;51.120;13.132;2023-04-24T04:11:21;2.97;;;1.90;;
31306;SDS011;17935;51.120;13.132;2023-04-24T04:13:47;1.98;;;1.67;;
31306;SDS011;17935;51.120;13.132;2023-04-24T04:16:13;10.10;;;2.33;;
31306;SDS011;17935;51.120;13.132;2023-04-24T04:18:41;5.50;;;2.42;;
31306;SDS011;17935;51.120;13.132;2023-04-24T04:21:07;3.63;;;2.00;;
31306;SDS011;17935;51.120;13.132;2023-04-24T04:23:33;2.15;;;1.85;;
31306;SDS011;17935;51.120;13.132;2023-04-24T04:25:59;2.75;;;1.75;;
31306;SDS011;17935;51.120;13.132;2023-04-24T04:28:26;1.70;;;1.55;;
31306;SDS011;17935;51.120;13.132;2023-04-24T04:30:52;2.22;;;1.98;;
31306;SDS011;17935;51.120;13.132;2023-04-24T04:33:19;3.53;;;1.75;;
31306;SDS011;17935;51.120;13.132;2023-04-24T04:35:45;7.47;;;1.90;;
31306;SDS011;17935;51.120;13.132;2023-04-24T04:38:14;3.35;;;1.95;;
31306;SDS011;17935;51.120;13.132;2023-04-24T04:40:40;4.07;;;2.33;;
31306;SDS011;17935;51.120;13.132;2023-04-24T04:43:06;2.97;;;1.73;;
31306;SDS011;17935;51.120;13.132;2023-04-24T04:45:32;1.77;;;1.63;;
31306;SDS011;17935;51.120;13.132;2023-04-24T04:47:59;2.35;;;1.75;;
31306;SDS011;17935;51.120;13.132;2023-04-24T04:50:25;4.78;;;1.90;;
31306;SDS011;17935;51.120;13.132;2023-04-24T04:52:51;4.13;;;1.80;;
31306;SDS011;17935;51.120;13.132;2023-04-24T04:55:18;3.28;;;1.80;;
31306;SDS011;17935;51.120;13.132;2023-04-24T04:57:46;4.20;;;1.80;;
31306;SDS011;17935;51.120;13.132;2023-04-24T05:00:13;6.75;;;1.75;;
31306;SDS011;17935;51.120;13.132;2023-04-24T05:02:39;5.03;;;2.05;;
31306;SDS011;17935;51.120;13.132;2023-04-24T05:05:05;3.05;;;1.80;;
31306;SDS011;17935;51.120;13.132;2023-04-24T05:07:31;2.95;;;1.63;;
31306;SDS011;17935;51.120;13.132;2023-04-24T05:09:57;4.40;;;2.00;;
31306;SDS011;17935;51.120;13.132;2023-04-24T05:12:23;1.70;;;1.60;;
31306;SDS011;17935;51.120;13.132;2023-04-24T05:14:49;5.28;;;1.98;;
31306;SDS011;17935;51.120;13.132;2023-04-24T05:17:15;3.97;;;1.55;;
31306;SDS011;17935;51.120;13.132;2023-04-24T05:19:41;1.95;;;1.55;;
31306;SDS011;17935;51.120;13.132;2023-04-24T05:22:07;26.65;;;2.80;;
31306;SDS011;17935;51.120;13.132;2023-04-24T05:24:34;2.92;;;1.73;;
31306;SDS011;17935;51.120;13.132;2023-04-24T05:27:00;4.30;;;1.85;;
31306;SDS011;17935;51.120;13.132;2023-04-24T05:29:27;2.55;;;1.80;;
31306;SDS011;17935;51.120;13.132;2023-04-24T05:31:55;3.38;;;1.52;;
31306;SDS011;17935;51.120;13.132;2023-04-24T05:34:21;2.13;;;1.67;;
31306;SDS011;17935;51.120;13.132;2023-04-24T05:36:47;1.52;;;1.30;;
31306;SDS011;17935;51.120;13.132;2023-04-24T05:39:13;2.35;;;1.58;;
31306;SDS011;17935;51.120;13.132;2023-04-24T05:41:40;6.68;;;1.48;;
31306;SDS011;17935;51.120;13.132;2023-04-24T05:44:06;10.40;;;4.80;;
31306;SDS011;17935;51.120;13.132;2023-04-24T05:46:32;2.70;;;1.70;;
31306;SDS011;17935;51.120;13.132;2023-04-24T05:48:58;2.63;;;1.48;;
31306;SDS011;17935;51.120;13.132;2023-04-24T05:51:24;3.20;;;1.67;;
31306;SDS011;17935;51.120;13.132;2023-04-24T05:53:50;2.13;;;1.30;;
31306;SDS011;17935;51.120;13.132;2023-04-24T05:56:16;1.83;;;1.10;;
31306;SDS011;17935;51.120;13.132;2023-04-24T05:58:42;10.52;;;1.75;;
31306;SDS011;17935;51.120;13.132;2023-04-24T06:01:08;1.95;;;1.33;;
31306;SDS011;17935;51.120;13.132;2023-04-24T06:03:34;3.13;;;1.33;;
31306;SDS011;17935;51.120;13.132;2023-04-24T06:06:00;1.63;;;1.30;;
31306;SDS011;17935;51.120;13.132;2023-04-24T06:08:26;2.45;;;1.60;;
31306;SDS011;17935;51.120;13.132;2023-04-24T06:10:52;3.60;;;1.48;;
31306;SDS011;17935;51.120;13.132;2023-04-24T06:13:18;4.30;;;1.38;;
31306;SDS011;17935;51.120;13.132;2023-04-24T06:15:44;1.38;;;1.25;;
31306;SDS011;17935;51.120;13.132;2023-04-24T06:18:10;2.95;;;1.10;;
31306;SDS011;17935;51.120;13.132;2023-04-24T06:20:37;3.08;;;1.20;;
31306;SDS011;17935;51.120;13.132;2023-04-24T06:23:03;4.63;;;1.20;;
31306;SDS011;17935;51.120;13.132;2023-04-24T06:25:29;1.35;;;1.00;;
31306;SDS011;17935;51.120;13.132;2023-04-24T06:27:55;1.75;;;1.10;;
31306;SDS011;17935;51.120;13.132;2023-04-24T06:30:21;2.15;;;1.30;;
31306;SDS011;17935;51.120;13.132;2023-04-24T06:32:47;2.40;;;1.20;;
31306;SDS011;17935;51.120;13.132;2023-04-24T06:35:13;2.22;;;1.10;;
31306;SDS011;17935;51.120;13.132;2023-04-24T06:37:39;6.07;;;1.10;;
31306;SDS011;17935;51.120;13.132;2023-04-24T06:40:05;4.88;;;1.48;;
31306;SDS011;17935;51.120;13.132;2023-04-24T06:42:31;2.35;;;0.82;;
31306;SDS011;17935;51.120;13.132;2023-04-24T06:44:57;1.55;;;1.15;;
31306;SDS011;17935;51.120;13.132;2023-04-24T06:47:23;1.73;;;1.00;;
31306;SDS011;17935;51.120;13.132;2023-04-24T06:49:49;4.53;;;1.35;;
31306;SDS011;17935;51.120;13.132;2023-04-24T06:52:17;5.90;;;1.33;;
31306;SDS011;17935;51.120;13.132;2023-04-24T06:54:43;2.38;;;1.20;;
31306;SDS011;17935;51.120;13.132;2023-04-24T06:57:09;2.70;;;0.90;;
31306;SDS011;17935;51.120;13.132;2023-04-24T06:59:35;1.42;;;1.15;;
31306;SDS011;17935;51.120;13.132;2023-04-24T07:02:01;1.65;;;1.08;;
31306;SDS011;17935;51.120;13.132;2023-04-24T07:04:28;2.03;;;1.30;;
31306;SDS011;17935;51.120;13.132;2023-04-24T07:06:54;2.58;;;1.02;;
31306;SDS011;17935;51.120;13.132;2023-04-24T07:09:23;2.30;;;1.33;;
31306;SDS011;17935;51.120;13.132;2023-04-24T07:11:50;1.67;;;1.20;;
31306;SDS011;17935;51.120;13.132;2023-04-24T07:14:16;1.30;;;1.00;;
31306;SDS011;17935;51.120;13.132;2023-04-24T07:16:42;2.45;;;1.00;;
31306;SDS011;17935;51.120;13.132;2023-04-24T07:19:08;2.67;;;1.00;;
31306;SDS011;17935;51.120;13.132;2023-04-24T07:21:34;2.72;;;1.15;;
31306;SDS011;17935;51.120;13.132;2023-04-24T07:24:01;1.40;;;1.10;;
31306;SDS011;17935;51.120;13.132;2023-04-24T07:26:28;1.67;;;0.98;;
31306;SDS011;17935;51.120;13.132;2023-04-24T07:28:54;1.20;;;1.10;;
31306;SDS011;17935;51.120;13.132;2023-04-24T07:31:20;4.03;;;1.25;;
31306;SDS011;17935;51.120;13.132;2023-04-24T07:33:46;1.55;;;1.23;;
31306;SDS011;17935;51.120;13.132;2023-04-24T07:36:12;1.73;;;1.10;;
31306;SDS011;17935;51.120;13.132;2023-04-24T07:38:42;2.65;;;1.48;;
31306;SDS011;17935;51.120;13.132;2023-04-24T07:41:08;6.00;;;1.20;;
31306;SDS011;17935;51.120;13.132;2023-04-24T07:43:34;4.82;;;1.40;;
31306;SDS011;17935;51.120;13.132;2023-04-24T07:46:00;3.00;;;1.20;;
31306;SDS011;17935;51.120;13.132;2023-04-24T07:48:26;2.28;;;1.25;;
31306;SDS011;17935;51.120;13.132;2023-04-24T07:50:52;4.40;;;1.27;;
31306;SDS011;17935;51.120;13.132;2023-04-24T07:53:18;3.10;;;1.55;;
31306;SDS011;17935;51.120;13.132;2023-04-24T07:55:44;3.97;;;1.33;;
31306;SDS011;17935;51.120;13.132;2023-04-24T07:58:10;1.13;;;1.00;;
31306;SDS011;17935;51.120;13.132;2023-04-24T08:00:36;6.70;;;1.65;;
31306;SDS011;17935;51.120;13.132;2023-04-24T08:03:02;5.15;;;1.30;;
31306;SDS011;17935;51.120;13.132;2023-04-24T08:05:28;2.92;;;1.50;;
31306;SDS011;17935;51.120;13.132;2023-04-24T08:07:54;7.05;;;1.75;;
31306;SDS011;17935;51.120;13.132;2023-04-24T08:10:21;2.10;;;1.10;;
31306;SDS011;17935;51.120;13.132;2023-04-24T08:12:47;4.72;;;1.40;;
31306;SDS011;17935;51.120;13.132;2023-04-24T08:15:13;4.00;;;1.20;;
31306;SDS011;17935;51.120;13.132;2023-04-24T08:17:39;1.00;;;0.93;;
31306;SDS011;17935;51.120;13.132;2023-04-24T08:20:05;2.22;;;1.30;;
31306;SDS011;17935;51.120;13.132;2023-04-24T08:22:35;1.20;;;1.00;;
31306;SDS011;17935;51.120;13.132;2023-04-24T08:25:01;4.03;;;1.25;;
31306;SDS011;17935;51.120;13.132;2023-04-24T08:27:27;2.58;;;1.20;;
31306;SDS011;17935;51.120;13.132;2023-04-24T08:29:53;4.07;;;1.70;;
31306;SDS011;17935;51.120;13.132;2023-04-24T08:32:19;6.32;;;1.38;;
31306;SDS011;17935;51.120;13.132;2023-04-24T08:34:45;4.00;;;1.63;;
31306;SDS011;17935;51.120;13.132;2023-04-24T08:37:11;3.83;;;1.42;;
31306;SDS011;17935;51.120;13.132;2023-04-24T08:39:37;3.65;;;1.10;;
31306;SDS011;17935;51.120;13.132;2023-04-24T08:42:04;7.50;;;1.33;;
31306;SDS011;17935;51.120;13.132;2023-04-24T08:44:33;2.80;;;1.50;;
31306;SDS011;17935;51.120;13.132;2023-04-24T08:46:59;9.55;;;1.42;;
31306;SDS011;17935;51.120;13.132;2023-04-24T08:49:26;2.50;;;1.25;;
31306;SDS011;17935;51.120;13.132;2023-04-24T08:51:52;3.08;;;1.50;;
31306;SDS011;17935;51.120;13.132;2023-04-24T08:54:18;2.15;;;1.23;;
31306;SDS011;17935;51.120;13.132;2023-04-24T08:56:44;5.55;;;1.42;;
31306;SDS011;17935;51.120;13.132;2023-04-24T08:59:10;2.13;;;1.15;;
31306;SDS011;17935;51.120;13.132;2023-04-24T09:01:37;4.25;;;1.10;;
31306;SDS011;17935;51.120;13.132;2023-04-24T09:04:04;2.25;;;1.20;;
31306;SDS011;17935;51.120;13.132;2023-04-24T09:06:32;2.75;;;1.42;;
31306;SDS011;17935;51.120;13.132;2023-04-24T09:09:00;2.33;;;1.15;;
31306;SDS011;17935;51.120;13.132;2023-04-24T09:11:27;2.08;;;1.40;;
31306;SDS011;17935;51.120;13.132;2023-04-24T09:13:53;2.97;;;2.30;;
31306;SDS011;17935;51.120;13.132;2023-04-24T09:16:20;2.58;;;1.30;;
31306;SDS011;17935;51.120;13.132;2023-04-24T09:18:48;2.67;;;1.30;;
31306;SDS011;17935;51.120;13.132;2023-04-24T09:21:13;7.40;;;1.52;;
31306;SDS011;17935;51.120;13.132;2023-04-24T09:23:40;2.78;;;1.17;;
31306;SDS011;17935;51.120;13.132;2023-04-24T09:26:06;2.33;;;1.20;;
31306;SDS011;17935;51.120;13.132;2023-04-24T09:28:35;0.80;;;0.80;;
31306;SDS011;17935;51.120;13.132;2023-04-24T09:31:15;4.40;;;1.02;;
31306;SDS011;17935;51.120;13.132;2023-04-24T09:33:55;2.08;;;0.82;;
31306;SDS011;17935;51.120;13.132;2023-04-24T09:36:54;1.08;;;0.98;;
31306;SDS011;17935;51.120;13.132;2023-04-24T09:39:14;2.80;;;1.17;;
31306;SDS011;17935;51.120;13.132;2023-04-24T09:41:47;2.72;;;0.85;;
31306;SDS011;17935;51.120;13.132;2023-04-24T09:44:18;1.38;;;0.82;;
31306;SDS011;17935;51.120;13.132;2023-04-24T09:46:50;1.73;;;1.02;;
31306;SDS011;17935;51.120;13.132;2023-04-24T09:49:21;3.60;;;1.15;;
31306;SDS011;17935;51.120;13.132;2023-04-24T09:51:47;0.68;;;0.68;;
31306;SDS011;17935;51.120;13.132;2023-04-24T09:54:14;4.25;;;0.90;;
31306;SDS011;17935;51.120;13.132;2023-04-24T09:56:45;1.70;;;0.77;;
31306;SDS011;17935;51.120;13.132;2023-04-24T09:59:12;3.70;;;0.80;;
31306;SDS011;17935;51.120;13.132;2023-04-24T10:01:37;1.60;;;0.80;;
31306;SDS011;17935;51.120;13.132;2023-04-24T10:04:08;0.93;;;0.80;;
31306;SDS011;17935;51.120;13.132;2023-04-24T10:06:40;1.52;;;0.90;;
31306;SDS011;17935;51.120;13.132;2023-04-24T10:09:08;2.30;;;1.00;;
31306;SDS011;17935;51.120;13.132;2023-04-24T10:11:35;1.85;;;0.90;;
31306;SDS011;17935;51.120;13.132;2023-04-24T10:14:02;0.80;;;0.75;;
31306;SDS011;17935;51.120;13.132;2023-04-24T10:16:29;2.33;;;0.90;;
31306;SDS011;17935;51.120;13.132;2023-04-24T10:18:55;0.93;;;0.88;;
31306;SDS011;17935;51.120;13.132;2023-04-24T10:21:21;1.20;;;0.98;;
31306;SDS011;17935;51.120;13.132;2023-04-24T10:23:48;2.88;;;1.20;;
31306;SDS011;17935;51.120;13.132;2023-04-24T10:26:15;2.65;;;1.20;;
31306;SDS011;17935;51.120;13.132;2023-04-24T10:28:46;1.90;;;1.13;;
31306;SDS011;17935;51.120;13.132;2023-04-24T10:31:12;2.13;;;1.20;;
31306;SDS011;17935;51.120;13.132;2023-04-24T10:33:38;4.53;;;1.02;;
31306;SDS011;17935;51.120;13.132;2023-04-24T10:36:06;3.42;;;1.00;;
31306;SDS011;17935;51.120;13.132;2023-04-24T10:38:33;2.83;;;1.02;;
31306;SDS011;17935;51.120;13.132;2023-04-24T10:41:06;4.25;;;1.08;;
31306;SDS011;17935;51.120;13.132;2023-04-24T10:43:33;1.70;;;1.10;;
31306;SDS011;17935;51.120;13.132;2023-04-24T10:46:00;1.98;;;1.15;;
31306;SDS011;17935;51.120;13.132;2023-04-24T10:48:27;1.60;;;0.80;;
31306;SDS011;17935;51.120;13.132;2023-04-24T10:50:53;0.70;;;0.70;;
31306;SDS011;17935;51.120;13.132;2023-04-24T10:53:20;0.98;;;0.70;;
31306;SDS011;17935;51.120;13.132;2023-04-24T10:55:48;1.73;;;0.70;;
31306;SDS011;17935;51.120;13.132;2023-04-24T10:58:15;3.13;;;1.15;;
31306;SDS011;17935;51.120;13.132;2023-04-24T11:00:42;2.35;;;0.90;;
31306;SDS011;17935;51.120;13.132;2023-04-24T11:03:32;0.95;;;0.50;;
31306;SDS011;17935;51.120;13.132;2023-04-24T11:08:26;2.53;;;0.80;;
31306;SDS011;17935;51.120;13.132;2023-04-24T11:10:59;2.95;;;1.00;;
31306;SDS011;17935;51.120;13.132;2023-04-24T11:13:27;2.70;;;0.68;;
31306;SDS011;17935;51.120;13.132;2023-04-24T11:16:11;4.07;;;0.90;;
31306;SDS011;17935;51.120;13.132;2023-04-24T11:18:38;1.27;;;0.93;;
31306;SDS011;17935;51.120;13.132;2023-04-24T11:21:11;2.92;;;1.55;;
31306;SDS011;17935;51.120;13.132;2023-04-24T11:23:37;1.07;;;0.70;;
31306;SDS011;17935;51.120;13.132;2023-04-24T11:26:10;0.82;;;0.65;;
31306;SDS011;17935;51.120;13.132;2023-04-24T11:28:37;1.75;;;0.80;;
31306;SDS011;17935;51.120;13.132;2023-04-24T11:33:54;1.77;;;1.05;;
31306;SDS011;17935;51.120;13.132;2023-04-24T11:36:20;1.27;;;0.80;;
31306;SDS011;17935;51.120;13.132;2023-04-24T11:38:46;2.83;;;1.05;;
31306;SDS011;17935;51.120;13.132;2023-04-24T11:41:12;0.70;;;0.70;;
31306;SDS011;17935;51.120;13.132;2023-04-24T11:43:38;1.63;;;0.95;;
31306;SDS011;17935;51.120;13.132;2023-04-24T11:46:05;1.58;;;0.93;;
31306;SDS011;17935;51.120;13.132;2023-04-24T11:48:34;1.50;;;1.10;;
31306;SDS011;17935;51.120;13.132;2023-04-24T11:51:01;4.97;;;0.75;;
31306;SDS011;17935;51.120;13.132;2023-04-24T11:53:27;1.20;;;1.10;;
31306;SDS011;17935;51.120;13.132;2023-04-24T11:55:53;1.48;;;0.93;;
31306;SDS011;17935;51.120;13.132;2023-04-24T11:58:20;2.28;;;1.05;;
31306;SDS011;17935;51.120;13.132;2023-04-24T12:00:53;3.08;;;0.70;;
31306;SDS011;17935;51.120;13.132;2023-04-24T12:03:21;1.50;;;0.88;;
31306;SDS011;17935;51.120;13.132;2023-04-24T12:05:47;1.23;;;1.13;;
31306;SDS011;17935;51.120;13.132;2023-04-24T12:08:26;1.95;;;0.98;;
31306;SDS011;17935;51.120;13.132;2023-04-24T12:10:52;2.03;;;0.80;;
31306;SDS011;17935;51.120;13.132;2023-04-24T12:13:18;1.35;;;0.95;;
31306;SDS011;17935;51.120;13.132;2023-04-24T12:15:44;2.90;;;0.90;;
31306;SDS011;17935;51.120;13.132;2023-04-24T12:18:11;2.47;;;0.98;;
31306;SDS011;17935;51.120;13.132;2023-04-24T12:20:39;0.88;;;0.80;;
31306;SDS011;17935;51.120;13.132;2023-04-24T12:23:05;1.00;;;0.90;;
31306;SDS011;17935;51.120;13.132;2023-04-24T12:25:32;4.13;;;1.08;;
31306;SDS011;17935;51.120;13.132;2023-04-24T12:30:31;1.23;;;1.00;;
31306;SDS011;17935;51.120;13.132;2023-04-24T12:32:57;2.15;;;1.00;;
31306;SDS011;17935;51.120;13.132;2023-04-24T12:35:24;1.08;;;0.90;;
31306;SDS011;17935;51.120;13.132;2023-04-24T12:37:50;2.10;;;1.08;;
31306;SDS011;17935;51.120;13.132;2023-04-24T12:40:17;2.30;;;1.10;;
31306;SDS011;17935;51.120;13.132;2023-04-24T12:42:47;1.98;;;1.08;;
31306;SDS011;17935;51.120;13.132;2023-04-24T12:45:14;1.20;;;1.08;;
31306;SDS011;17935;51.120;13.132;2023-04-24T12:47:40;1.25;;;1.08;;
31306;SDS011;17935;51.120;13.132;2023-04-24T12:50:07;5.15;;;1.15;;
31306;SDS011;17935;51.120;13.132;2023-04-24T12:52:33;5.22;;;1.23;;
31306;SDS011;17935;51.120;13.132;2023-04-24T12:55:00;2.75;;;0.93;;
31306;SDS011;17935;51.120;13.132;2023-04-24T12:57:28;5.65;;;1.00;;
31306;SDS011;17935;51.120;13.132;2023-04-24T12:59:55;4.55;;;1.00;;
31306;SDS011;17935;51.120;13.132;2023-04-24T13:02:25;1.25;;;0.70;;
31306;SDS011;17935;51.120;13.132;2023-04-24T13:04:51;0.70;;;0.70;;
31306;SDS011;17935;51.120;13.132;2023-04-24T13:07:17;1.55;;;1.45;;
31306;SDS011;17935;51.120;13.132;2023-04-24T13:09:43;0.98;;;0.80;;
31306;SDS011;17935;51.120;13.132;2023-04-24T13:12:10;1.00;;;1.00;;
31306;SDS011;17935;51.120;13.132;2023-04-24T13:14:36;1.27;;;0.90;;
31306;SDS011;17935;51.120;13.132;2023-04-24T13:17:02;2.63;;;1.10;;
31306;SDS011;17935;51.120;13.132;2023-04-24T13:19:28;1.65;;;1.08;;
31306;SDS011;17935;51.120;13.132;2023-04-24T13:21:55;1.00;;;0.82;;
31306;SDS011;17935;51.120;13.132;2023-04-24T13:24:22;0.82;;;0.82;;
31306;SDS011;17935;51.120;13.132;2023-04-24T13:26:54;2.15;;;1.17;;
31306;SDS011;17935;51.120;13.132;2023-04-24T13:29:21;4.20;;;1.30;;
31306;SDS011;17935;51.120;13.132;2023-04-24T13:31:49;2.97;;;1.27;;
31306;SDS011;17935;51.120;13.132;2023-04-24T13:34:15;1.10;;;1.00;;
31306;SDS011;17935;51.120;13.132;2023-04-24T13:36:41;1.23;;;1.00;;
31306;SDS011;17935;51.120;13.132;2023-04-24T13:39:07;2.13;;;1.10;;
31306;SDS011;17935;51.120;13.132;2023-04-24T13:41:33;4.88;;;1.40;;
31306;SDS011;17935;51.120;13.132;2023-04-24T13:44:00;1.10;;;1.00;;
31306;SDS011;17935;51.120;13.132;2023-04-24T13:46:26;1.80;;;1.20;;
31306;SDS011;17935;51.120;13.132;2023-04-24T13:48:52;3.83;;;1.08;;
31306;SDS011;17935;51.120;13.132;2023-04-24T13:51:18;1.50;;;1.13;;
31306;SDS011;17935;51.120;13.132;2023-04-24T13:53:44;3.17;;;1.20;;
31306;SDS011;17935;51.120;13.132;2023-04-24T13:56:10;1.02;;;0.95;;
31306;SDS011;17935;51.120;13.132;2023-04-24T13:58:37;1.38;;;1.13;;
31306;SDS011;17935;51.120;13.132;2023-04-24T14:01:04;3.00;;;1.27;;
31306;SDS011;17935;51.120;13.132;2023-04-24T14:03:30;2.63;;;1.35;;
31306;SDS011;17935;51.120;13.132;2023-04-24T14:05:56;3.05;;;1.30;;
31306;SDS011;17935;51.120;13.132;2023-04-24T14:08:22;5.47;;;1.20;;
31306;SDS011;17935;51.120;13.132;2023-04-24T14:10:49;2.80;;;1.10;;
31306;SDS011;17935;51.120;13.132;2023-04-24T14:13:16;10.18;;;2.13;;
31306;SDS011;17935;51.120;13.132;2023-04-24T14:15:41;1.60;;;1.27;;
31306;SDS011;17935;51.120;13.132;2023-04-24T14:18:07;1.20;;;1.13;;
31306;SDS011;17935;51.120;13.132;2023-04-24T14:20:33;1.15;;;1.00;;
31306;SDS011;17935;51.120;13.132;2023-04-24T14:22:59;1.25;;;1.15;;
31306;SDS011;17935;51.120;13.132;2023-04-24T14:25:25;2.75;;;1.13;;
31306;SDS011;17935;51.120;13.132;2023-04-24T14:27:51;3.05;;;1.10;;
31306;SDS011;17935;51.120;13.132;2023-04-24T14:30:18;1.48;;;1.17;;
31306;SDS011;17935;51.120;13.132;2023-04-24T14:32:44;4.18;;;1.33;;
31306;SDS011;17935;51.120;13.132;2023-04-24T14:35:10;1.65;;;1.45;;
31306;SDS011;17935;51.120;13.132;2023-04-24T14:37:36;1.83;;;1.35;;